sensor_id;sensor_type;location;lat;lon;timestamp;temperature;humidity
7900;DHT22;3995;50.856;4.404;2022-08-19T00:00:28;26.30;53.00
7900;DHT22;3995;50.856;4.404;2022-08-19T00:02:57;26.30;53.00
7900;DHT22;3995;50.856;4.404;2022-08-19T00:05:24;26.30;53.00
7900;DHT22;3995;50.856;4.404;2022-08-19T00:07:51;26.30;53.00
7900;DHT22;3995;50.856;4.404;2022-08-19T00:10:19;26.30;53.10
7900;DHT22;3995;50.856;4.404;2022-08-19T00:12:47;26.30;53.20
7900;DHT22;3995;50.856;4.404;2022-08-19T00:15:16;26.20;53.80
7900;DHT22;3995;50.856;4.404;2022-08-19T00:17:45;26.20;53.30
7900;DHT22;3995;50.856;4.404;2022-08-19T00:20:16;26.20;53.40
7900;DHT22;3995;50.856;4.404;2022-08-19T00:22:45;26.20;53.50
7900;DHT22;3995;50.856;4.404;2022-08-19T00:25:13;26.20;53.70
7900;DHT22;3995;50.856;4.404;2022-08-19T00:27:40;26.20;53.80
7900;DHT22;3995;50.856;4.404;2022-08-19T00:30:08;26.20;54.20
7900;DHT22;3995;50.856;4.404;2022-08-19T00:32:36;26.10;54.30
7900;DHT22;3995;50.856;4.404;2022-08-19T00:35:05;26.10;54.40
7900;DHT22;3995;50.856;4.404;2022-08-19T00:37:33;26.10;54.60
7900;DHT22;3995;50.856;4.404;2022-08-19T00:40:02;26.10;54.80
7900;DHT22;3995;50.856;4.404;2022-08-19T00:42:29;26.10;54.90
7900;DHT22;3995;50.856;4.404;2022-08-19T00:44:56;26.10;55.00
7900;DHT22;3995;50.856;4.404;2022-08-19T00:47:23;26.10;55.10
7900;DHT22;3995;50.856;4.404;2022-08-19T00:49:56;26.10;55.10
7900;DHT22;3995;50.856;4.404;2022-08-19T00:52:26;26.10;55.20
7900;DHT22;3995;50.856;4.404;2022-08-19T00:54:56;26.10;55.20
7900;DHT22;3995;50.856;4.404;2022-08-19T00:57:28;26.10;55.30
7900;DHT22;3995;50.856;4.404;2022-08-19T00:59:58;26.10;55.30
7900;DHT22;3995;50.856;4.404;2022-08-19T01:02:26;26.00;55.30
7900;DHT22;3995;50.856;4.404;2022-08-19T01:04:54;26.00;55.30
7900;DHT22;3995;50.856;4.404;2022-08-19T01:07:22;26.00;55.30
7900;DHT22;3995;50.856;4.404;2022-08-19T01:09:49;26.00;55.30
7900;DHT22;3995;50.856;4.404;2022-08-19T01:12:18;26.00;55.10
7900;DHT22;3995;50.856;4.404;2022-08-19T01:14:46;26.00;55.00
7900;DHT22;3995;50.856;4.404;2022-08-19T01:17:14;26.00;55.00
7900;DHT22;3995;50.856;4.404;2022-08-19T01:19:43;26.00;55.00
7900;DHT22;3995;50.856;4.404;2022-08-19T01:22:16;26.00;54.90
7900;DHT22;3995;50.856;4.404;2022-08-19T01:24:47;26.00;55.00
7900;DHT22;3995;50.856;4.404;2022-08-19T01:27:14;25.90;54.80
7900;DHT22;3995;50.856;4.404;2022-08-19T01:29:43;25.90;55.30
7900;DHT22;3995;50.856;4.404;2022-08-19T01:32:12;25.90;54.60
7900;DHT22;3995;50.856;4.404;2022-08-19T01:34:40;25.90;54.40
7900;DHT22;3995;50.856;4.404;2022-08-19T01:37:09;25.80;54.10
7900;DHT22;3995;50.856;4.404;2022-08-19T01:39:37;25.90;54.10
7900;DHT22;3995;50.856;4.404;2022-08-19T01:42:08;25.80;53.70
7900;DHT22;3995;50.856;4.404;2022-08-19T01:44:37;25.80;53.70
7900;DHT22;3995;50.856;4.404;2022-08-19T01:47:05;25.80;53.80
7900;DHT22;3995;50.856;4.404;2022-08-19T01:49:33;25.70;53.90
7900;DHT22;3995;50.856;4.404;2022-08-19T01:52:01;25.80;54.00
7900;DHT22;3995;50.856;4.404;2022-08-19T01:54:28;25.70;53.80
7900;DHT22;3995;50.856;4.404;2022-08-19T01:57:00;25.70;53.50
7900;DHT22;3995;50.856;4.404;2022-08-19T01:59:30;25.70;53.30
7900;DHT22;3995;50.856;4.404;2022-08-19T02:01:58;25.70;52.90
7900;DHT22;3995;50.856;4.404;2022-08-19T02:04:25;25.70;53.00
7900;DHT22;3995;50.856;4.404;2022-08-19T02:06:52;25.70;53.20
7900;DHT22;3995;50.856;4.404;2022-08-19T02:09:19;25.60;53.20
7900;DHT22;3995;50.856;4.404;2022-08-19T02:11:46;25.60;53.30
7900;DHT22;3995;50.856;4.404;2022-08-19T02:14:13;25.60;53.50
7900;DHT22;3995;50.856;4.404;2022-08-19T02:16:42;25.60;53.60
7900;DHT22;3995;50.856;4.404;2022-08-19T02:19:09;25.60;53.50
7900;DHT22;3995;50.856;4.404;2022-08-19T02:21:37;25.60;53.40
7900;DHT22;3995;50.856;4.404;2022-08-19T02:24:04;25.60;53.30
7900;DHT22;3995;50.856;4.404;2022-08-19T02:26:32;25.60;53.00
7900;DHT22;3995;50.856;4.404;2022-08-19T02:29:00;25.50;52.70
7900;DHT22;3995;50.856;4.404;2022-08-19T02:31:27;25.50;52.60
7900;DHT22;3995;50.856;4.404;2022-08-19T02:33:56;25.50;52.70
7900;DHT22;3995;50.856;4.404;2022-08-19T02:36:24;25.50;52.80
7900;DHT22;3995;50.856;4.404;2022-08-19T02:38:52;25.50;53.10
7900;DHT22;3995;50.856;4.404;2022-08-19T02:41:21;25.50;53.30
7900;DHT22;3995;50.856;4.404;2022-08-19T02:43:48;25.50;53.40
7900;DHT22;3995;50.856;4.404;2022-08-19T02:46:18;25.40;53.40
7900;DHT22;3995;50.856;4.404;2022-08-19T02:48:47;25.50;53.50
7900;DHT22;3995;50.856;4.404;2022-08-19T02:51:20;25.50;53.40
7900;DHT22;3995;50.856;4.404;2022-08-19T02:53:48;25.50;53.20
7900;DHT22;3995;50.856;4.404;2022-08-19T02:56:16;25.40;53.20
7900;DHT22;3995;50.856;4.404;2022-08-19T02:58:43;25.40;53.00
7900;DHT22;3995;50.856;4.404;2022-08-19T03:01:10;25.40;53.60
7900;DHT22;3995;50.856;4.404;2022-08-19T03:03:38;25.40;53.00
7900;DHT22;3995;50.856;4.404;2022-08-19T03:06:07;25.40;53.10
7900;DHT22;3995;50.856;4.404;2022-08-19T03:08:37;25.40;53.10
7900;DHT22;3995;50.856;4.404;2022-08-19T03:11:04;25.40;53.20
7900;DHT22;3995;50.856;4.404;2022-08-19T03:13:31;25.40;53.30
7900;DHT22;3995;50.856;4.404;2022-08-19T03:15:59;25.40;53.30
7900;DHT22;3995;50.856;4.404;2022-08-19T03:18:26;25.40;53.30
7900;DHT22;3995;50.856;4.404;2022-08-19T03:20:53;25.40;53.40
7900;DHT22;3995;50.856;4.404;2022-08-19T03:23:22;25.30;53.30
7900;DHT22;3995;50.856;4.404;2022-08-19T03:25:52;25.30;53.40
7900;DHT22;3995;50.856;4.404;2022-08-19T03:28:19;25.30;53.30
7900;DHT22;3995;50.856;4.404;2022-08-19T03:30:57;25.30;53.40
7900;DHT22;3995;50.856;4.404;2022-08-19T03:33:26;25.30;53.30
7900;DHT22;3995;50.856;4.404;2022-08-19T03:36:05;25.20;53.30
7900;DHT22;3995;50.856;4.404;2022-08-19T03:38:34;25.20;53.30
7900;DHT22;3995;50.856;4.404;2022-08-19T03:41:09;25.20;53.50
7900;DHT22;3995;50.856;4.404;2022-08-19T03:43:38;25.20;53.40
7900;DHT22;3995;50.856;4.404;2022-08-19T03:46:08;25.10;53.50
7900;DHT22;3995;50.856;4.404;2022-08-19T03:48:37;25.10;53.50
7900;DHT22;3995;50.856;4.404;2022-08-19T03:51:05;25.10;53.60
7900;DHT22;3995;50.856;4.404;2022-08-19T03:53:33;25.10;53.60
7900;DHT22;3995;50.856;4.404;2022-08-19T03:56:01;25.10;53.70
7900;DHT22;3995;50.856;4.404;2022-08-19T03:58:30;25.10;53.60
7900;DHT22;3995;50.856;4.404;2022-08-19T04:00:57;25.10;53.60
7900;DHT22;3995;50.856;4.404;2022-08-19T04:03:25;25.10;53.70
7900;DHT22;3995;50.856;4.404;2022-08-19T04:05:53;25.00;53.70
7900;DHT22;3995;50.856;4.404;2022-08-19T04:08:20;25.00;53.70
7900;DHT22;3995;50.856;4.404;2022-08-19T04:10:48;25.00;53.80
7900;DHT22;3995;50.856;4.404;2022-08-19T04:13:17;25.00;53.80
7900;DHT22;3995;50.856;4.404;2022-08-19T04:15:46;25.00;53.80
7900;DHT22;3995;50.856;4.404;2022-08-19T04:18:13;25.00;54.50
7900;DHT22;3995;50.856;4.404;2022-08-19T04:20:42;24.90;53.90
7900;DHT22;3995;50.856;4.404;2022-08-19T04:23:10;24.90;53.90
7900;DHT22;3995;50.856;4.404;2022-08-19T04:25:39;24.90;53.90
7900;DHT22;3995;50.856;4.404;2022-08-19T04:28:08;24.90;54.00
7900;DHT22;3995;50.856;4.404;2022-08-19T04:30:40;24.90;54.00
7900;DHT22;3995;50.856;4.404;2022-08-19T04:33:09;24.90;54.00
7900;DHT22;3995;50.856;4.404;2022-08-19T04:35:38;24.90;54.10
7900;DHT22;3995;50.856;4.404;2022-08-19T04:38:06;24.90;54.20
7900;DHT22;3995;50.856;4.404;2022-08-19T04:40:34;24.80;54.10
7900;DHT22;3995;50.856;4.404;2022-08-19T04:43:23;24.80;54.20
7900;DHT22;3995;50.856;4.404;2022-08-19T04:45:50;24.80;54.20
7900;DHT22;3995;50.856;4.404;2022-08-19T04:48:19;24.80;54.10
7900;DHT22;3995;50.856;4.404;2022-08-19T04:50:51;24.80;54.10
7900;DHT22;3995;50.856;4.404;2022-08-19T04:53:23;24.80;54.20
7900;DHT22;3995;50.856;4.404;2022-08-19T04:55:50;24.80;54.20
7900;DHT22;3995;50.856;4.404;2022-08-19T04:58:18;24.80;54.70
7900;DHT22;3995;50.856;4.404;2022-08-19T05:00:45;24.80;54.10
7900;DHT22;3995;50.856;4.404;2022-08-19T05:03:12;24.70;54.10
7900;DHT22;3995;50.856;4.404;2022-08-19T05:05:44;24.80;54.20
7900;DHT22;3995;50.856;4.404;2022-08-19T05:08:16;24.70;54.20
7900;DHT22;3995;50.856;4.404;2022-08-19T05:10:45;24.70;54.20
7900;DHT22;3995;50.856;4.404;2022-08-19T05:13:13;24.70;54.30
7900;DHT22;3995;50.856;4.404;2022-08-19T05:15:41;24.70;54.30
7900;DHT22;3995;50.856;4.404;2022-08-19T05:18:09;24.70;54.30
7900;DHT22;3995;50.856;4.404;2022-08-19T05:20:55;24.70;54.30
7900;DHT22;3995;50.856;4.404;2022-08-19T05:23:41;24.70;54.40
7900;DHT22;3995;50.856;4.404;2022-08-19T05:26:10;24.70;54.40
7900;DHT22;3995;50.856;4.404;2022-08-19T05:28:38;24.70;54.50
7900;DHT22;3995;50.856;4.404;2022-08-19T05:31:05;24.70;54.50
7900;DHT22;3995;50.856;4.404;2022-08-19T05:33:32;24.70;54.50
7900;DHT22;3995;50.856;4.404;2022-08-19T05:36:03;24.70;54.50
7900;DHT22;3995;50.856;4.404;2022-08-19T05:38:31;24.80;54.60
7900;DHT22;3995;50.856;4.404;2022-08-19T05:40:58;24.70;54.60
7900;DHT22;3995;50.856;4.404;2022-08-19T05:43:25;24.70;54.50
7900;DHT22;3995;50.856;4.404;2022-08-19T05:45:53;24.80;54.60
7900;DHT22;3995;50.856;4.404;2022-08-19T05:48:20;24.80;54.60
7900;DHT22;3995;50.856;4.404;2022-08-19T05:50:47;24.80;54.60
7900;DHT22;3995;50.856;4.404;2022-08-19T05:53:17;24.80;54.50
7900;DHT22;3995;50.856;4.404;2022-08-19T05:55:45;24.80;54.50
7900;DHT22;3995;50.856;4.404;2022-08-19T05:58:12;24.80;54.50
7900;DHT22;3995;50.856;4.404;2022-08-19T06:00:38;24.80;54.50
7900;DHT22;3995;50.856;4.404;2022-08-19T06:03:06;24.80;54.50
7900;DHT22;3995;50.856;4.404;2022-08-19T06:05:33;24.80;55.10
7900;DHT22;3995;50.856;4.404;2022-08-19T06:08:00;24.80;54.50
7900;DHT22;3995;50.856;4.404;2022-08-19T06:10:29;24.80;54.60
7900;DHT22;3995;50.856;4.404;2022-08-19T06:12:56;24.80;54.60
7900;DHT22;3995;50.856;4.404;2022-08-19T06:15:24;24.80;54.60
7900;DHT22;3995;50.856;4.404;2022-08-19T06:17:51;24.80;54.60
7900;DHT22;3995;50.856;4.404;2022-08-19T06:20:19;24.90;54.80
7900;DHT22;3995;50.856;4.404;2022-08-19T06:22:49;24.90;54.80
7900;DHT22;3995;50.856;4.404;2022-08-19T06:25:17;24.80;54.80
7900;DHT22;3995;50.856;4.404;2022-08-19T06:27:46;24.90;54.90
7900;DHT22;3995;50.856;4.404;2022-08-19T06:30:13;24.90;55.00
7900;DHT22;3995;50.856;4.404;2022-08-19T06:32:40;24.80;55.00
7900;DHT22;3995;50.856;4.404;2022-08-19T06:35:08;24.90;55.10
7900;DHT22;3995;50.856;4.404;2022-08-19T06:37:37;24.90;55.00
7900;DHT22;3995;50.856;4.404;2022-08-19T06:40:06;24.90;55.10
7900;DHT22;3995;50.856;4.404;2022-08-19T06:42:34;24.90;55.10
7900;DHT22;3995;50.856;4.404;2022-08-19T06:45:03;24.90;55.20
7900;DHT22;3995;50.856;4.404;2022-08-19T06:47:31;24.90;55.30
7900;DHT22;3995;50.856;4.404;2022-08-19T06:49:59;24.90;55.50
7900;DHT22;3995;50.856;4.404;2022-08-19T06:52:28;24.90;55.50
7900;DHT22;3995;50.856;4.404;2022-08-19T06:54:55;24.90;55.70
7900;DHT22;3995;50.856;4.404;2022-08-19T06:57:24;24.90;55.70
7900;DHT22;3995;50.856;4.404;2022-08-19T06:59:51;24.90;55.80
7900;DHT22;3995;50.856;4.404;2022-08-19T07:02:20;24.90;55.70
7900;DHT22;3995;50.856;4.404;2022-08-19T07:04:52;24.90;55.80
7900;DHT22;3995;50.856;4.404;2022-08-19T07:07:20;24.90;55.90
7900;DHT22;3995;50.856;4.404;2022-08-19T07:09:48;24.90;55.90
7900;DHT22;3995;50.856;4.404;2022-08-19T07:12:16;24.90;55.90
7900;DHT22;3995;50.856;4.404;2022-08-19T07:14:43;24.90;56.10
7900;DHT22;3995;50.856;4.404;2022-08-19T07:17:11;24.90;56.20
7900;DHT22;3995;50.856;4.404;2022-08-19T07:19:41;24.90;56.20
7900;DHT22;3995;50.856;4.404;2022-08-19T07:22:09;24.90;56.20
7900;DHT22;3995;50.856;4.404;2022-08-19T07:24:37;24.90;56.20
7900;DHT22;3995;50.856;4.404;2022-08-19T07:27:05;24.90;56.30
7900;DHT22;3995;50.856;4.404;2022-08-19T07:29:34;24.90;56.30
7900;DHT22;3995;50.856;4.404;2022-08-19T07:32:03;24.90;56.40
7900;DHT22;3995;50.856;4.404;2022-08-19T07:34:31;24.90;56.40
7900;DHT22;3995;50.856;4.404;2022-08-19T07:37:04;24.90;56.50
7900;DHT22;3995;50.856;4.404;2022-08-19T07:39:34;24.90;56.50
7900;DHT22;3995;50.856;4.404;2022-08-19T07:42:05;25.00;56.70
7900;DHT22;3995;50.856;4.404;2022-08-19T07:44:32;25.00;56.70
7900;DHT22;3995;50.856;4.404;2022-08-19T07:47:00;24.90;56.70
7900;DHT22;3995;50.856;4.404;2022-08-19T07:49:28;24.90;56.70
7900;DHT22;3995;50.856;4.404;2022-08-19T07:51:57;24.90;56.90
7900;DHT22;3995;50.856;4.404;2022-08-19T07:54:31;25.00;57.00
7900;DHT22;3995;50.856;4.404;2022-08-19T07:56:59;25.00;57.00
7900;DHT22;3995;50.856;4.404;2022-08-19T07:59:27;25.00;57.10
7900;DHT22;3995;50.856;4.404;2022-08-19T08:01:55;25.00;57.10
7900;DHT22;3995;50.856;4.404;2022-08-19T08:04:22;25.00;57.40
7900;DHT22;3995;50.856;4.404;2022-08-19T08:07:08;25.00;57.20
7900;DHT22;3995;50.856;4.404;2022-08-19T08:09:53;25.00;57.30
7900;DHT22;3995;50.856;4.404;2022-08-19T08:12:23;25.10;57.30
7900;DHT22;3995;50.856;4.404;2022-08-19T08:14:55;25.10;57.30
7900;DHT22;3995;50.856;4.404;2022-08-19T08:17:26;25.10;57.30
7900;DHT22;3995;50.856;4.404;2022-08-19T08:19:53;25.10;57.40
7900;DHT22;3995;50.856;4.404;2022-08-19T08:22:22;25.10;57.40
7900;DHT22;3995;50.856;4.404;2022-08-19T08:25:06;25.10;57.40
7900;DHT22;3995;50.856;4.404;2022-08-19T08:27:35;25.20;57.40
7900;DHT22;3995;50.856;4.404;2022-08-19T08:30:05;25.20;57.40
7900;DHT22;3995;50.856;4.404;2022-08-19T08:32:34;25.20;57.40
7900;DHT22;3995;50.856;4.404;2022-08-19T08:35:03;25.20;57.40
7900;DHT22;3995;50.856;4.404;2022-08-19T08:37:30;25.20;57.40
7900;DHT22;3995;50.856;4.404;2022-08-19T08:39:57;25.20;57.50
7900;DHT22;3995;50.856;4.404;2022-08-19T08:42:30;25.20;57.40
7900;DHT22;3995;50.856;4.404;2022-08-19T08:45:03;25.20;57.40
7900;DHT22;3995;50.856;4.404;2022-08-19T08:47:37;25.20;57.50
7900;DHT22;3995;50.856;4.404;2022-08-19T08:50:09;25.30;57.60
7900;DHT22;3995;50.856;4.404;2022-08-19T08:52:44;25.20;57.60
7900;DHT22;3995;50.856;4.404;2022-08-19T08:55:15;25.20;57.70
7900;DHT22;3995;50.856;4.404;2022-08-19T08:57:53;25.20;57.70
7900;DHT22;3995;50.856;4.404;2022-08-19T09:00:24;25.30;57.70
7900;DHT22;3995;50.856;4.404;2022-08-19T09:02:52;25.20;57.80
7900;DHT22;3995;50.856;4.404;2022-08-19T09:05:21;25.20;57.80
7900;DHT22;3995;50.856;4.404;2022-08-19T09:07:55;25.30;58.00
7900;DHT22;3995;50.856;4.404;2022-08-19T09:10:29;25.30;57.90
7900;DHT22;3995;50.856;4.404;2022-08-19T09:13:04;25.30;57.90
7900;DHT22;3995;50.856;4.404;2022-08-19T09:15:37;25.30;58.00
7900;DHT22;3995;50.856;4.404;2022-08-19T09:18:05;25.30;58.10
7900;DHT22;3995;50.856;4.404;2022-08-19T09:20:32;25.30;58.10
7900;DHT22;3995;50.856;4.404;2022-08-19T09:23:00;25.30;58.20
7900;DHT22;3995;50.856;4.404;2022-08-19T09:25:27;25.30;58.20
7900;DHT22;3995;50.856;4.404;2022-08-19T09:27:56;25.30;58.20
7900;DHT22;3995;50.856;4.404;2022-08-19T09:30:32;25.30;58.20
7900;DHT22;3995;50.856;4.404;2022-08-19T09:32:59;25.40;58.20
7900;DHT22;3995;50.856;4.404;2022-08-19T09:35:29;25.40;58.30
7900;DHT22;3995;50.856;4.404;2022-08-19T09:37:57;25.40;58.30
7900;DHT22;3995;50.856;4.404;2022-08-19T09:40:25;25.40;58.30
7900;DHT22;3995;50.856;4.404;2022-08-19T09:42:52;25.40;58.20
7900;DHT22;3995;50.856;4.404;2022-08-19T09:45:21;25.40;58.20
7900;DHT22;3995;50.856;4.404;2022-08-19T09:47:51;25.40;58.20
7900;DHT22;3995;50.856;4.404;2022-08-19T09:50:19;25.40;58.30
7900;DHT22;3995;50.856;4.404;2022-08-19T09:52:46;25.40;58.30
7900;DHT22;3995;50.856;4.404;2022-08-19T09:55:13;25.40;58.30
7900;DHT22;3995;50.856;4.404;2022-08-19T09:57:41;25.40;58.30
7900;DHT22;3995;50.856;4.404;2022-08-19T10:00:09;25.40;58.20
7900;DHT22;3995;50.856;4.404;2022-08-19T10:02:37;25.50;58.20
7900;DHT22;3995;50.856;4.404;2022-08-19T10:05:06;25.50;58.30
7900;DHT22;3995;50.856;4.404;2022-08-19T10:07:50;25.50;58.30
7900;DHT22;3995;50.856;4.404;2022-08-19T10:10:20;25.50;58.30
7900;DHT22;3995;50.856;4.404;2022-08-19T10:12:47;25.50;58.30
7900;DHT22;3995;50.856;4.404;2022-08-19T10:15:15;25.50;58.30
7900;DHT22;3995;50.856;4.404;2022-08-19T10:17:45;25.50;58.30
7900;DHT22;3995;50.856;4.404;2022-08-19T10:20:14;25.50;58.30
7900;DHT22;3995;50.856;4.404;2022-08-19T10:22:41;25.50;58.30
7900;DHT22;3995;50.856;4.404;2022-08-19T10:25:09;25.50;58.30
7900;DHT22;3995;50.856;4.404;2022-08-19T10:27:36;25.50;58.40
7900;DHT22;3995;50.856;4.404;2022-08-19T10:30:04;25.60;58.40
7900;DHT22;3995;50.856;4.404;2022-08-19T10:32:32;25.50;58.40
7900;DHT22;3995;50.856;4.404;2022-08-19T10:34:59;25.50;58.40
7900;DHT22;3995;50.856;4.404;2022-08-19T10:37:28;25.50;58.40
7900;DHT22;3995;50.856;4.404;2022-08-19T10:39:56;25.60;58.50
7900;DHT22;3995;50.856;4.404;2022-08-19T10:42:23;25.60;58.40
7900;DHT22;3995;50.856;4.404;2022-08-19T10:44:50;25.60;58.50
7900;DHT22;3995;50.856;4.404;2022-08-19T10:47:17;25.60;58.40
7900;DHT22;3995;50.856;4.404;2022-08-19T10:49:48;25.60;58.50
7900;DHT22;3995;50.856;4.404;2022-08-19T10:52:34;25.60;58.50
7900;DHT22;3995;50.856;4.404;2022-08-19T10:55:04;25.60;58.50
7900;DHT22;3995;50.856;4.404;2022-08-19T10:57:48;25.60;58.60
7900;DHT22;3995;50.856;4.404;2022-08-19T11:00:15;25.60;58.70
7900;DHT22;3995;50.856;4.404;2022-08-19T11:02:43;25.60;58.80
7900;DHT22;3995;50.856;4.404;2022-08-19T11:05:11;25.60;58.70
7900;DHT22;3995;50.856;4.404;2022-08-19T11:07:40;25.70;58.80
7900;DHT22;3995;50.856;4.404;2022-08-19T11:10:12;25.70;58.90
7900;DHT22;3995;50.856;4.404;2022-08-19T11:12:40;25.70;58.80
7900;DHT22;3995;50.856;4.404;2022-08-19T11:15:09;25.60;58.80
7900;DHT22;3995;50.856;4.404;2022-08-19T11:17:37;25.60;58.90
7900;DHT22;3995;50.856;4.404;2022-08-19T11:20:07;25.60;58.90
7900;DHT22;3995;50.856;4.404;2022-08-19T11:22:35;25.60;58.90
7900;DHT22;3995;50.856;4.404;2022-08-19T11:25:04;25.60;59.00
7900;DHT22;3995;50.856;4.404;2022-08-19T11:27:31;25.60;58.90
7900;DHT22;3995;50.856;4.404;2022-08-19T11:29:59;25.70;58.90
7900;DHT22;3995;50.856;4.404;2022-08-19T11:32:26;25.70;58.80
7900;DHT22;3995;50.856;4.404;2022-08-19T11:34:54;25.70;58.80
7900;DHT22;3995;50.856;4.404;2022-08-19T11:37:21;25.70;58.80
7900;DHT22;3995;50.856;4.404;2022-08-19T11:39:48;25.70;58.80
7900;DHT22;3995;50.856;4.404;2022-08-19T11:42:17;25.70;58.90
7900;DHT22;3995;50.856;4.404;2022-08-19T11:45:02;25.70;59.60
7900;DHT22;3995;50.856;4.404;2022-08-19T11:47:30;25.70;58.90
7900;DHT22;3995;50.856;4.404;2022-08-19T11:49:59;25.70;58.80
7900;DHT22;3995;50.856;4.404;2022-08-19T11:52:26;25.70;58.70
7900;DHT22;3995;50.856;4.404;2022-08-19T11:54:55;25.70;58.70
7900;DHT22;3995;50.856;4.404;2022-08-19T11:57:24;25.70;58.60
7900;DHT22;3995;50.856;4.404;2022-08-19T11:59:52;25.70;58.60
7900;DHT22;3995;50.856;4.404;2022-08-19T12:02:19;25.70;58.60
7900;DHT22;3995;50.856;4.404;2022-08-19T12:04:47;25.70;58.70
7900;DHT22;3995;50.856;4.404;2022-08-19T12:07:14;25.80;58.80
7900;DHT22;3995;50.856;4.404;2022-08-19T12:09:41;25.80;58.70
7900;DHT22;3995;50.856;4.404;2022-08-19T12:12:08;25.90;58.70
7900;DHT22;3995;50.856;4.404;2022-08-19T12:14:37;26.00;58.40
7900;DHT22;3995;50.856;4.404;2022-08-19T12:17:05;26.10;58.10
7900;DHT22;3995;50.856;4.404;2022-08-19T12:19:35;26.20;58.00
7900;DHT22;3995;50.856;4.404;2022-08-19T12:22:02;26.30;58.10
7900;DHT22;3995;50.856;4.404;2022-08-19T12:24:31;26.30;57.80
7900;DHT22;3995;50.856;4.404;2022-08-19T12:26:59;26.40;57.50
7900;DHT22;3995;50.856;4.404;2022-08-19T12:29:27;26.40;57.30
7900;DHT22;3995;50.856;4.404;2022-08-19T12:31:57;26.40;57.20
7900;DHT22;3995;50.856;4.404;2022-08-19T12:34:27;26.50;57.20
7900;DHT22;3995;50.856;4.404;2022-08-19T12:36:56;26.40;57.10
7900;DHT22;3995;50.856;4.404;2022-08-19T12:39:24;26.40;57.20
7900;DHT22;3995;50.856;4.404;2022-08-19T12:41:52;26.40;57.10
7900;DHT22;3995;50.856;4.404;2022-08-19T12:44:19;26.40;57.10
7900;DHT22;3995;50.856;4.404;2022-08-19T12:46:47;26.40;57.10
7900;DHT22;3995;50.856;4.404;2022-08-19T12:49:16;26.40;57.10
7900;DHT22;3995;50.856;4.404;2022-08-19T12:51:43;26.40;57.00
7900;DHT22;3995;50.856;4.404;2022-08-19T12:54:12;26.40;57.10
7900;DHT22;3995;50.856;4.404;2022-08-19T12:56:40;26.40;57.10
7900;DHT22;3995;50.856;4.404;2022-08-19T12:59:09;26.40;57.00
7900;DHT22;3995;50.856;4.404;2022-08-19T13:01:37;26.40;56.90
7900;DHT22;3995;50.856;4.404;2022-08-19T13:04:04;26.40;56.60
7900;DHT22;3995;50.856;4.404;2022-08-19T13:06:33;26.50;56.60
7900;DHT22;3995;50.856;4.404;2022-08-19T13:09:01;26.50;56.40
7900;DHT22;3995;50.856;4.404;2022-08-19T13:11:28;26.50;56.50
7900;DHT22;3995;50.856;4.404;2022-08-19T13:13:58;26.60;56.60
7900;DHT22;3995;50.856;4.404;2022-08-19T13:16:26;26.60;56.50
7900;DHT22;3995;50.856;4.404;2022-08-19T13:18:54;26.70;57.10
7900;DHT22;3995;50.856;4.404;2022-08-19T13:21:24;26.70;56.50
7900;DHT22;3995;50.856;4.404;2022-08-19T13:23:54;26.70;56.40
7900;DHT22;3995;50.856;4.404;2022-08-19T13:26:22;26.70;57.00
7900;DHT22;3995;50.856;4.404;2022-08-19T13:28:50;26.70;56.10
7900;DHT22;3995;50.856;4.404;2022-08-19T13:31:36;26.70;56.10
7900;DHT22;3995;50.856;4.404;2022-08-19T13:34:27;26.70;56.20
7900;DHT22;3995;50.856;4.404;2022-08-19T13:36:55;26.70;55.90
7900;DHT22;3995;50.856;4.404;2022-08-19T13:39:24;26.70;55.90
7900;DHT22;3995;50.856;4.404;2022-08-19T13:41:51;26.70;55.90
7900;DHT22;3995;50.856;4.404;2022-08-19T13:44:19;26.70;56.00
7900;DHT22;3995;50.856;4.404;2022-08-19T13:46:48;26.70;56.00
7900;DHT22;3995;50.856;4.404;2022-08-19T13:49:18;26.70;55.90
7900;DHT22;3995;50.856;4.404;2022-08-19T13:51:46;26.70;56.00
7900;DHT22;3995;50.856;4.404;2022-08-19T13:54:13;26.80;56.00
7900;DHT22;3995;50.856;4.404;2022-08-19T13:56:43;26.80;56.10
7900;DHT22;3995;50.856;4.404;2022-08-19T13:59:11;26.80;56.10
7900;DHT22;3995;50.856;4.404;2022-08-19T14:01:39;26.80;55.90
7900;DHT22;3995;50.856;4.404;2022-08-19T14:04:07;26.80;55.90
7900;DHT22;3995;50.856;4.404;2022-08-19T14:06:35;26.80;55.80
7900;DHT22;3995;50.856;4.404;2022-08-19T14:09:02;26.80;55.90
7900;DHT22;3995;50.856;4.404;2022-08-19T14:11:33;26.80;55.90
7900;DHT22;3995;50.856;4.404;2022-08-19T14:14:02;26.80;56.10
7900;DHT22;3995;50.856;4.404;2022-08-19T14:16:29;26.70;56.90
7900;DHT22;3995;50.856;4.404;2022-08-19T14:18:56;26.70;57.60
7900;DHT22;3995;50.856;4.404;2022-08-19T14:21:24;26.70;57.90
7900;DHT22;3995;50.856;4.404;2022-08-19T14:23:52;26.60;58.50
7900;DHT22;3995;50.856;4.404;2022-08-19T14:26:22;26.60;59.10
7900;DHT22;3995;50.856;4.404;2022-08-19T14:28:50;26.60;59.20
7900;DHT22;3995;50.856;4.404;2022-08-19T14:31:19;26.50;59.20
7900;DHT22;3995;50.856;4.404;2022-08-19T14:33:49;26.50;59.40
7900;DHT22;3995;50.856;4.404;2022-08-19T14:36:16;26.50;59.40
7900;DHT22;3995;50.856;4.404;2022-08-19T14:38:43;26.50;59.30
7900;DHT22;3995;50.856;4.404;2022-08-19T14:41:14;26.50;59.20
7900;DHT22;3995;50.856;4.404;2022-08-19T14:43:43;26.50;59.00
7900;DHT22;3995;50.856;4.404;2022-08-19T14:46:13;26.40;58.90
7900;DHT22;3995;50.856;4.404;2022-08-19T14:48:42;26.40;58.90
7900;DHT22;3995;50.856;4.404;2022-08-19T14:51:10;26.40;59.10
7900;DHT22;3995;50.856;4.404;2022-08-19T14:53:37;26.40;59.80
7900;DHT22;3995;50.856;4.404;2022-08-19T14:56:08;26.40;60.30
7900;DHT22;3995;50.856;4.404;2022-08-19T14:58:35;26.30;60.90
7900;DHT22;3995;50.856;4.404;2022-08-19T15:01:02;26.30;61.20
7900;DHT22;3995;50.856;4.404;2022-08-19T15:03:30;26.30;61.20
7900;DHT22;3995;50.856;4.404;2022-08-19T15:06:00;26.30;61.70
7900;DHT22;3995;50.856;4.404;2022-08-19T15:08:30;26.30;61.30
7900;DHT22;3995;50.856;4.404;2022-08-19T15:10:58;26.40;61.40
7900;DHT22;3995;50.856;4.404;2022-08-19T15:13:26;26.40;61.60
7900;DHT22;3995;50.856;4.404;2022-08-19T15:15:54;26.40;61.30
7900;DHT22;3995;50.856;4.404;2022-08-19T15:18:22;26.40;61.40
7900;DHT22;3995;50.856;4.404;2022-08-19T15:20:50;26.40;61.50
7900;DHT22;3995;50.856;4.404;2022-08-19T15:23:19;26.40;61.80
7900;DHT22;3995;50.856;4.404;2022-08-19T15:25:48;26.40;61.60
7900;DHT22;3995;50.856;4.404;2022-08-19T15:28:17;26.40;61.50
7900;DHT22;3995;50.856;4.404;2022-08-19T15:30:44;26.50;61.40
7900;DHT22;3995;50.856;4.404;2022-08-19T15:33:11;26.50;61.00
7900;DHT22;3995;50.856;4.404;2022-08-19T15:35:40;26.50;60.30
7900;DHT22;3995;50.856;4.404;2022-08-19T15:38:08;26.50;60.10
7900;DHT22;3995;50.856;4.404;2022-08-19T15:40:37;26.50;60.10
7900;DHT22;3995;50.856;4.404;2022-08-19T15:43:05;26.50;60.00
7900;DHT22;3995;50.856;4.404;2022-08-19T15:45:32;26.50;59.80
7900;DHT22;3995;50.856;4.404;2022-08-19T15:48:00;26.50;59.50
7900;DHT22;3995;50.856;4.404;2022-08-19T15:50:28;26.50;59.50
7900;DHT22;3995;50.856;4.404;2022-08-19T15:52:57;26.40;59.60
7900;DHT22;3995;50.856;4.404;2022-08-19T15:55:29;26.40;59.60
7900;DHT22;3995;50.856;4.404;2022-08-19T15:57:59;26.40;59.80
7900;DHT22;3995;50.856;4.404;2022-08-19T16:00:44;26.40;59.90
7900;DHT22;3995;50.856;4.404;2022-08-19T16:03:28;26.40;60.20
7900;DHT22;3995;50.856;4.404;2022-08-19T16:06:13;26.40;60.90
7900;DHT22;3995;50.856;4.404;2022-08-19T16:08:52;26.40;62.20
7900;DHT22;3995;50.856;4.404;2022-08-19T16:11:20;26.30;63.20
7900;DHT22;3995;50.856;4.404;2022-08-19T16:13:50;26.30;63.90